sensor_id;sensor_type;location;lat;lon;timestamp;temperature;humidity
6843;DHT22;3460;52.028;8.916;2022-12-18T00:02:06;-6.30;99.90
6843;DHT22;3460;52.028;8.916;2022-12-18T00:04:33;-6.40;99.90
6843;DHT22;3460;52.028;8.916;2022-12-18T00:07:00;-6.50;99.90
6843;DHT22;3460;52.028;8.916;2022-12-18T00:09:26;-6.70;99.90
6843;DHT22;3460;52.028;8.916;2022-12-18T00:11:54;-6.80;99.90
6843;DHT22;3460;52.028;8.916;2022-12-18T00:14:21;-6.80;99.90
6843;DHT22;3460;52.028;8.916;2022-12-18T00:16:48;-6.80;99.90
6843;DHT22;3460;52.028;8.916;2022-12-18T00:19:14;-6.80;99.90
6843;DHT22;3460;52.028;8.916;2022-12-18T00:21:42;-6.90;99.90
6843;DHT22;3460;52.028;8.916;2022-12-18T00:24:10;-6.80;99.90
6843;DHT22;3460;52.028;8.916;2022-12-18T00:26:38;-6.80;99.90
6843;DHT22;3460;52.028;8.916;2022-12-18T00:29:09;-6.60;99.90
6843;DHT22;3460;52.028;8.916;2022-12-18T00:31:37;-6.50;99.90
6843;DHT22;3460;52.028;8.916;2022-12-18T00:34:04;-6.50;99.90
6843;DHT22;3460;52.028;8.916;2022-12-18T00:36:33;-6.50;99.90
6843;DHT22;3460;52.028;8.916;2022-12-18T00:39:02;-6.40;99.90
6843;DHT22;3460;52.028;8.916;2022-12-18T00:41:29;-6.40;99.90
6843;DHT22;3460;52.028;8.916;2022-12-18T00:44:16;-6.40;99.90
6843;DHT22;3460;52.028;8.916;2022-12-18T00:46:44;-6.40;99.90
6843;DHT22;3460;52.028;8.916;2022-12-18T00:49:11;-6.50;99.90
6843;DHT22;3460;52.028;8.916;2022-12-18T00:51:37;-6.50;99.90
6843;DHT22;3460;52.028;8.916;2022-12-18T00:54:04;-6.60;99.90
6843;DHT22;3460;52.028;8.916;2022-12-18T00:56:31;-6.90;99.90
6843;DHT22;3460;52.028;8.916;2022-12-18T00:58:58;-7.10;99.90
6843;DHT22;3460;52.028;8.916;2022-12-18T01:01:26;-7.10;99.90
6843;DHT22;3460;52.028;8.916;2022-12-18T01:03:52;-7.10;99.90
6843;DHT22;3460;52.028;8.916;2022-12-18T01:06:19;-7.00;99.90
6843;DHT22;3460;52.028;8.916;2022-12-18T01:08:46;-6.90;99.90
6843;DHT22;3460;52.028;8.916;2022-12-18T01:11:15;-6.70;99.90
6843;DHT22;3460;52.028;8.916;2022-12-18T01:13:42;-6.70;99.90
6843;DHT22;3460;52.028;8.916;2022-12-18T01:16:12;-6.60;99.90
6843;DHT22;3460;52.028;8.916;2022-12-18T01:18:40;-6.60;99.90
6843;DHT22;3460;52.028;8.916;2022-12-18T01:21:08;-6.50;99.90
6843;DHT22;3460;52.028;8.916;2022-12-18T01:23:36;-6.40;99.90
6843;DHT22;3460;52.028;8.916;2022-12-18T01:26:07;-6.40;99.90
6843;DHT22;3460;52.028;8.916;2022-12-18T01:28:34;-6.40;99.90
6843;DHT22;3460;52.028;8.916;2022-12-18T01:31:13;-6.40;99.90
6843;DHT22;3460;52.028;8.916;2022-12-18T01:33:42;-6.40;99.90
6843;DHT22;3460;52.028;8.916;2022-12-18T01:36:14;-6.40;99.90
6843;DHT22;3460;52.028;8.916;2022-12-18T01:38:41;-6.30;99.90
6843;DHT22;3460;52.028;8.916;2022-12-18T01:41:09;-6.40;99.90
6843;DHT22;3460;52.028;8.916;2022-12-18T01:43:48;-6.40;99.90
6843;DHT22;3460;52.028;8.916;2022-12-18T01:46:16;-6.40;99.90
6843;DHT22;3460;52.028;8.916;2022-12-18T01:48:44;-6.30;99.90
6843;DHT22;3460;52.028;8.916;2022-12-18T01:51:12;-6.20;99.90
6843;DHT22;3460;52.028;8.916;2022-12-18T01:53:41;-6.20;99.90
6843;DHT22;3460;52.028;8.916;2022-12-18T01:56:10;-6.10;99.90
6843;DHT22;3460;52.028;8.916;2022-12-18T01:58:43;-6.00;99.90
6843;DHT22;3460;52.028;8.916;2022-12-18T02:01:11;-6.00;99.90
6843;DHT22;3460;52.028;8.916;2022-12-18T02:03:41;-5.90;99.90
6843;DHT22;3460;52.028;8.916;2022-12-18T02:06:13;-5.80;99.90
6843;DHT22;3460;52.028;8.916;2022-12-18T02:08:51;-5.80;99.90
6843;DHT22;3460;52.028;8.916;2022-12-18T02:11:26;-5.70;99.90
6843;DHT22;3460;52.028;8.916;2022-12-18T02:14:04;-5.70;99.90
6843;DHT22;3460;52.028;8.916;2022-12-18T02:16:40;-5.70;99.90
6843;DHT22;3460;52.028;8.916;2022-12-18T02:19:20;-5.70;99.90
6843;DHT22;3460;52.028;8.916;2022-12-18T02:21:57;-5.70;99.90
6843;DHT22;3460;52.028;8.916;2022-12-18T02:24:33;-5.70;99.90
6843;DHT22;3460;52.028;8.916;2022-12-18T02:27:04;-5.70;99.90
6843;DHT22;3460;52.028;8.916;2022-12-18T02:29:35;-5.80;99.90
6843;DHT22;3460;52.028;8.916;2022-12-18T02:32:08;-5.80;99.90
6843;DHT22;3460;52.028;8.916;2022-12-18T02:34:38;-5.90;99.90
6843;DHT22;3460;52.028;8.916;2022-12-18T02:37:07;-5.90;99.90
6843;DHT22;3460;52.028;8.916;2022-12-18T02:39:37;-5.80;99.90
6843;DHT22;3460;52.028;8.916;2022-12-18T02:42:06;-5.80;99.90
6843;DHT22;3460;52.028;8.916;2022-12-18T02:44:33;-5.80;99.90
6843;DHT22;3460;52.028;8.916;2022-12-18T02:47:00;-5.70;99.90
6843;DHT22;3460;52.028;8.916;2022-12-18T02:49:34;-5.70;99.90
6843;DHT22;3460;52.028;8.916;2022-12-18T02:52:10;-5.60;99.90
6843;DHT22;3460;52.028;8.916;2022-12-18T02:54:52;-5.60;99.90
6843;DHT22;3460;52.028;8.916;2022-12-18T02:57:25;-5.60;99.90
6843;DHT22;3460;52.028;8.916;2022-12-18T03:00:00;-5.60;99.90
6843;DHT22;3460;52.028;8.916;2022-12-18T03:02:33;-5.60;99.90
6843;DHT22;3460;52.028;8.916;2022-12-18T03:05:05;-5.50;99.90
6843;DHT22;3460;52.028;8.916;2022-12-18T03:07:37;-5.60;99.90
6843;DHT22;3460;52.028;8.916;2022-12-18T03:10:07;-5.60;99.90
6843;DHT22;3460;52.028;8.916;2022-12-18T03:12:40;-5.60;99.90
6843;DHT22;3460;52.028;8.916;2022-12-18T03:15:10;-5.60;99.90
6843;DHT22;3460;52.028;8.916;2022-12-18T03:17:42;-5.60;99.90
6843;DHT22;3460;52.028;8.916;2022-12-18T03:20:14;-5.60;99.90
6843;DHT22;3460;52.028;8.916;2022-12-18T03:22:43;-5.60;99.90
6843;DHT22;3460;52.028;8.916;2022-12-18T03:25:13;-5.60;99.90
6843;DHT22;3460;52.028;8.916;2022-12-18T03:27:46;-5.60;99.90
6843;DHT22;3460;52.028;8.916;2022-12-18T03:30:15;-5.60;99.90
6843;DHT22;3460;52.028;8.916;2022-12-18T03:32:46;-5.60;99.90
6843;DHT22;3460;52.028;8.916;2022-12-18T03:35:18;-5.60;99.90
6843;DHT22;3460;52.028;8.916;2022-12-18T03:37:47;-5.60;99.90
6843;DHT22;3460;52.028;8.916;2022-12-18T03:40:14;-5.60;99.90
6843;DHT22;3460;52.028;8.916;2022-12-18T03:42:46;-5.60;99.90
6843;DHT22;3460;52.028;8.916;2022-12-18T03:45:20;-5.60;99.90
6843;DHT22;3460;52.028;8.916;2022-12-18T03:47:57;-5.60;99.90
6843;DHT22;3460;52.028;8.916;2022-12-18T03:50:31;-5.60;99.90
6843;DHT22;3460;52.028;8.916;2022-12-18T03:53:09;-5.60;99.90
6843;DHT22;3460;52.028;8.916;2022-12-18T03:55:38;-5.60;99.90
6843;DHT22;3460;52.028;8.916;2022-12-18T03:58:08;-5.60;99.90
6843;DHT22;3460;52.028;8.916;2022-12-18T04:00:36;-5.60;99.90
6843;DHT22;3460;52.028;8.916;2022-12-18T04:03:04;-5.50;99.90
6843;DHT22;3460;52.028;8.916;2022-12-18T04:05:33;-5.50;99.90
6843;DHT22;3460;52.028;8.916;2022-12-18T04:08:01;-5.50;99.90
6843;DHT22;3460;52.028;8.916;2022-12-18T04:10:28;-5.50;99.90
6843;DHT22;3460;52.028;8.916;2022-12-18T04:12:56;-5.60;99.90
6843;DHT22;3460;52.028;8.916;2022-12-18T04:15:24;-5.60;99.90
6843;DHT22;3460;52.028;8.916;2022-12-18T04:17:51;-5.60;99.90
6843;DHT22;3460;52.028;8.916;2022-12-18T04:20:18;-5.60;99.90
6843;DHT22;3460;52.028;8.916;2022-12-18T04:22:45;-5.60;99.90
6843;DHT22;3460;52.028;8.916;2022-12-18T04:25:11;-5.60;99.90
6843;DHT22;3460;52.028;8.916;2022-12-18T04:27:38;-5.60;99.90
6843;DHT22;3460;52.028;8.916;2022-12-18T04:30:06;-5.60;99.90
6843;DHT22;3460;52.028;8.916;2022-12-18T04:32:35;-5.60;99.90
6843;DHT22;3460;52.028;8.916;2022-12-18T04:35:02;-5.60;99.90
6843;DHT22;3460;52.028;8.916;2022-12-18T04:37:29;-5.60;99.90
6843;DHT22;3460;52.028;8.916;2022-12-18T04:39:56;-5.60;99.90
6843;DHT22;3460;52.028;8.916;2022-12-18T04:42:23;-5.70;99.90
6843;DHT22;3460;52.028;8.916;2022-12-18T04:44:49;-5.70;99.90
6843;DHT22;3460;52.028;8.916;2022-12-18T04:47:16;-5.70;99.90
6843;DHT22;3460;52.028;8.916;2022-12-18T04:49:44;-5.70;99.90
6843;DHT22;3460;52.028;8.916;2022-12-18T04:52:11;-5.70;99.90
6843;DHT22;3460;52.028;8.916;2022-12-18T04:54:37;-5.70;99.90
6843;DHT22;3460;52.028;8.916;2022-12-18T04:57:04;-5.70;99.90
6843;DHT22;3460;52.028;8.916;2022-12-18T04:59:31;-5.70;99.90
6843;DHT22;3460;52.028;8.916;2022-12-18T05:01:57;-5.70;99.90
6843;DHT22;3460;52.028;8.916;2022-12-18T05:04:24;-5.70;99.90
6843;DHT22;3460;52.028;8.916;2022-12-18T05:06:52;-5.70;99.90
6843;DHT22;3460;52.028;8.916;2022-12-18T05:09:19;-5.80;99.90
6843;DHT22;3460;52.028;8.916;2022-12-18T05:11:45;-5.80;99.90
6843;DHT22;3460;52.028;8.916;2022-12-18T05:14:12;-5.80;99.90
6843;DHT22;3460;52.028;8.916;2022-12-18T05:16:39;-5.80;99.90
6843;DHT22;3460;52.028;8.916;2022-12-18T05:19:05;-5.90;99.90
6843;DHT22;3460;52.028;8.916;2022-12-18T05:21:32;-5.90;99.90
6843;DHT22;3460;52.028;8.916;2022-12-18T05:24:00;-5.90;99.90
6843;DHT22;3460;52.028;8.916;2022-12-18T05:26:27;-5.90;99.90
6843;DHT22;3460;52.028;8.916;2022-12-18T05:28:53;-5.90;99.90
6843;DHT22;3460;52.028;8.916;2022-12-18T05:31:20;-5.90;99.90
6843;DHT22;3460;52.028;8.916;2022-12-18T05:33:47;-5.90;99.90
6843;DHT22;3460;52.028;8.916;2022-12-18T05:36:13;-5.90;99.90
6843;DHT22;3460;52.028;8.916;2022-12-18T05:38:41;-5.90;99.90
6843;DHT22;3460;52.028;8.916;2022-12-18T05:41:09;-5.90;99.90
6843;DHT22;3460;52.028;8.916;2022-12-18T05:43:37;-5.90;99.90
6843;DHT22;3460;52.028;8.916;2022-12-18T05:46:05;-5.90;99.90
6843;DHT22;3460;52.028;8.916;2022-12-18T05:48:32;-5.90;99.90
6843;DHT22;3460;52.028;8.916;2022-12-18T05:51:04;-5.90;99.90
6843;DHT22;3460;52.028;8.916;2022-12-18T05:53:31;-5.90;99.90
6843;DHT22;3460;52.028;8.916;2022-12-18T05:56:00;-5.80;99.90
6843;DHT22;3460;52.028;8.916;2022-12-18T05:58:28;-5.80;99.90
6843;DHT22;3460;52.028;8.916;2022-12-18T06:00:55;-5.80;99.90
6843;DHT22;3460;52.028;8.916;2022-12-18T06:03:22;-5.80;99.90
6843;DHT22;3460;52.028;8.916;2022-12-18T06:05:49;-5.80;99.90
6843;DHT22;3460;52.028;8.916;2022-12-18T06:08:16;-5.70;99.90
6843;DHT22;3460;52.028;8.916;2022-12-18T06:10:49;-5.70;99.90
6843;DHT22;3460;52.028;8.916;2022-12-18T06:13:17;-5.70;99.90
6843;DHT22;3460;52.028;8.916;2022-12-18T06:15:45;-5.70;99.90
6843;DHT22;3460;52.028;8.916;2022-12-18T06:18:13;-5.70;99.90
6843;DHT22;3460;52.028;8.916;2022-12-18T06:20:39;-5.70;99.90
6843;DHT22;3460;52.028;8.916;2022-12-18T06:23:06;-5.60;99.90
6843;DHT22;3460;52.028;8.916;2022-12-18T06:25:37;-5.60;99.90
6843;DHT22;3460;52.028;8.916;2022-12-18T06:28:04;-5.60;99.90
6843;DHT22;3460;52.028;8.916;2022-12-18T06:30:31;-5.60;99.90
6843;DHT22;3460;52.028;8.916;2022-12-18T06:32:59;-5.50;99.90
6843;DHT22;3460;52.028;8.916;2022-12-18T06:35:25;-5.50;99.90
6843;DHT22;3460;52.028;8.916;2022-12-18T06:37:52;-5.50;99.90
6843;DHT22;3460;52.028;8.916;2022-12-18T06:40:19;-5.50;99.90
6843;DHT22;3460;52.028;8.916;2022-12-18T06:42:45;-5.50;99.90
6843;DHT22;3460;52.028;8.916;2022-12-18T06:45:12;-5.50;99.90
6843;DHT22;3460;52.028;8.916;2022-12-18T06:47:39;-5.50;99.90
6843;DHT22;3460;52.028;8.916;2022-12-18T06:50:07;-5.50;99.90
6843;DHT22;3460;52.028;8.916;2022-12-18T06:52:34;-5.40;99.90
6843;DHT22;3460;52.028;8.916;2022-12-18T06:55:02;-5.40;99.90
6843;DHT22;3460;52.028;8.916;2022-12-18T06:57:29;-5.40;99.90
6843;DHT22;3460;52.028;8.916;2022-12-18T06:59:56;-5.40;99.90
6843;DHT22;3460;52.028;8.916;2022-12-18T07:02:22;-5.40;99.90
6843;DHT22;3460;52.028;8.916;2022-12-18T07:04:49;-5.40;99.90
6843;DHT22;3460;52.028;8.916;2022-12-18T07:07:17;-5.40;99.90
6843;DHT22;3460;52.028;8.916;2022-12-18T07:09:44;-5.40;99.90
6843;DHT22;3460;52.028;8.916;2022-12-18T07:12:10;-5.40;99.90
6843;DHT22;3460;52.028;8.916;2022-12-18T07:14:37;-5.40;99.90
6843;DHT22;3460;52.028;8.916;2022-12-18T07:17:04;-5.40;99.90
6843;DHT22;3460;52.028;8.916;2022-12-18T07:19:31;-5.40;99.90
6843;DHT22;3460;52.028;8.916;2022-12-18T07:21:57;-5.40;99.90
6843;DHT22;3460;52.028;8.916;2022-12-18T07:24:25;-5.40;99.90
6843;DHT22;3460;52.028;8.916;2022-12-18T07:26:52;-5.40;99.90
6843;DHT22;3460;52.028;8.916;2022-12-18T07:29:19;-5.40;99.90
6843;DHT22;3460;52.028;8.916;2022-12-18T07:31:45;-5.40;99.90
6843;DHT22;3460;52.028;8.916;2022-12-18T07:34:13;-5.40;99.90
6843;DHT22;3460;52.028;8.916;2022-12-18T07:36:40;-5.40;99.90
6843;DHT22;3460;52.028;8.916;2022-12-18T07:39:07;-5.40;99.90
6843;DHT22;3460;52.028;8.916;2022-12-18T07:41:35;-5.40;99.90
6843;DHT22;3460;52.028;8.916;2022-12-18T07:44:02;-5.40;99.90
6843;DHT22;3460;52.028;8.916;2022-12-18T07:46:29;-5.40;99.90
6843;DHT22;3460;52.028;8.916;2022-12-18T07:48:55;-5.40;99.90
6843;DHT22;3460;52.028;8.916;2022-12-18T07:51:22;-5.40;99.90
6843;DHT22;3460;52.028;8.916;2022-12-18T07:53:49;-5.40;99.90
6843;DHT22;3460;52.028;8.916;2022-12-18T07:56:15;-5.40;99.90
6843;DHT22;3460;52.028;8.916;2022-12-18T07:58:43;-5.40;99.90
6843;DHT22;3460;52.028;8.916;2022-12-18T08:01:11;-5.40;99.90
6843;DHT22;3460;52.028;8.916;2022-12-18T08:03:39;-5.40;99.90
6843;DHT22;3460;52.028;8.916;2022-12-18T08:06:08;-5.50;99.90
6843;DHT22;3460;52.028;8.916;2022-12-18T08:08:35;-5.50;99.90
6843;DHT22;3460;52.028;8.916;2022-12-18T08:11:02;-5.50;99.90
6843;DHT22;3460;52.028;8.916;2022-12-18T08:13:29;-5.50;99.90
6843;DHT22;3460;52.028;8.916;2022-12-18T08:15:58;-5.50;99.90
6843;DHT22;3460;52.028;8.916;2022-12-18T08:18:25;-5.50;99.90
6843;DHT22;3460;52.028;8.916;2022-12-18T08:20:51;-5.50;99.90
6843;DHT22;3460;52.028;8.916;2022-12-18T08:23:18;-5.40;99.90
6843;DHT22;3460;52.028;8.916;2022-12-18T08:25:45;-5.40;99.90
6843;DHT22;3460;52.028;8.916;2022-12-18T08:28:12;-5.40;99.90
6843;DHT22;3460;52.028;8.916;2022-12-18T08:30:39;-5.40;99.90
6843;DHT22;3460;52.028;8.916;2022-12-18T08:33:07;-5.30;99.90
6843;DHT22;3460;52.028;8.916;2022-12-18T08:35:35;-5.20;99.90
6843;DHT22;3460;52.028;8.916;2022-12-18T08:38:02;-5.20;99.90
6843;DHT22;3460;52.028;8.916;2022-12-18T08:40:29;-5.10;99.90
6843;DHT22;3460;52.028;8.916;2022-12-18T08:42:56;-5.10;99.90
6843;DHT22;3460;52.028;8.916;2022-12-18T08:45:40;-5.00;99.90
6843;DHT22;3460;52.028;8.916;2022-12-18T08:48:08;-4.90;99.90
6843;DHT22;3460;52.028;8.916;2022-12-18T08:50:35;-4.80;99.90
6843;DHT22;3460;52.028;8.916;2022-12-18T08:53:02;-4.80;99.90
6843;DHT22;3460;52.028;8.916;2022-12-18T08:55:28;-4.70;99.90
6843;DHT22;3460;52.028;8.916;2022-12-18T08:57:55;-4.70;99.90
6843;DHT22;3460;52.028;8.916;2022-12-18T09:00:22;-4.70;99.90
6843;DHT22;3460;52.028;8.916;2022-12-18T09:02:49;-4.60;99.90
6843;DHT22;3460;52.028;8.916;2022-12-18T09:05:17;-4.60;99.90
6843;DHT22;3460;52.028;8.916;2022-12-18T09:07:43;-4.60;99.90
6843;DHT22;3460;52.028;8.916;2022-12-18T09:10:10;-4.60;99.90
6843;DHT22;3460;52.028;8.916;2022-12-18T09:12:37;-4.60;99.90
6843;DHT22;3460;52.028;8.916;2022-12-18T09:15:04;-4.50;99.90
6843;DHT22;3460;52.028;8.916;2022-12-18T09:17:31;-4.60;99.90
6843;DHT22;3460;52.028;8.916;2022-12-18T09:19:58;-4.50;99.90
6843;DHT22;3460;52.028;8.916;2022-12-18T09:22:26;-4.50;99.90
6843;DHT22;3460;52.028;8.916;2022-12-18T09:24:52;-4.50;99.90
6843;DHT22;3460;52.028;8.916;2022-12-18T09:27:19;-4.40;99.90
6843;DHT22;3460;52.028;8.916;2022-12-18T09:29:46;-4.40;99.90
6843;DHT22;3460;52.028;8.916;2022-12-18T09:32:12;-4.30;99.90
6843;DHT22;3460;52.028;8.916;2022-12-18T09:34:39;-4.30;99.90
6843;DHT22;3460;52.028;8.916;2022-12-18T09:37:06;-4.20;99.90
6843;DHT22;3460;52.028;8.916;2022-12-18T09:39:34;-4.10;99.90
6843;DHT22;3460;52.028;8.916;2022-12-18T09:42:01;-4.10;99.90
6843;DHT22;3460;52.028;8.916;2022-12-18T09:44:30;-4.10;99.90
6843;DHT22;3460;52.028;8.916;2022-12-18T09:47:10;-4.10;99.90
6843;DHT22;3460;52.028;8.916;2022-12-18T09:49:41;-4.00;99.90
6843;DHT22;3460;52.028;8.916;2022-12-18T09:52:14;-4.00;99.90
6843;DHT22;3460;52.028;8.916;2022-12-18T09:54:46;-4.00;99.90
6843;DHT22;3460;52.028;8.916;2022-12-18T09:57:15;-3.90;99.90
6843;DHT22;3460;52.028;8.916;2022-12-18T09:59:47;-3.80;99.90
6843;DHT22;3460;52.028;8.916;2022-12-18T10:02:18;-3.80;99.90
6843;DHT22;3460;52.028;8.916;2022-12-18T10:07:47;-3.80;99.90
6843;DHT22;3460;52.028;8.916;2022-12-18T10:10:23;-3.80;99.90
6843;DHT22;3460;52.028;8.916;2022-12-18T10:12:59;-3.80;99.90
6843;DHT22;3460;52.028;8.916;2022-12-18T10:15:34;-3.70;99.90
6843;DHT22;3460;52.028;8.916;2022-12-18T10:18:07;-3.70;99.90
6843;DHT22;3460;52.028;8.916;2022-12-18T10:20:41;-3.60;99.90
6843;DHT22;3460;52.028;8.916;2022-12-18T10:23:16;-3.60;99.90
6843;DHT22;3460;52.028;8.916;2022-12-18T10:25:53;-3.50;99.90
6843;DHT22;3460;52.028;8.916;2022-12-18T10:28:20;-3.50;99.90
6843;DHT22;3460;52.028;8.916;2022-12-18T10:30:48;-3.40;99.90
6843;DHT22;3460;52.028;8.916;2022-12-18T10:33:16;-3.40;99.90
6843;DHT22;3460;52.028;8.916;2022-12-18T10:35:45;-3.30;99.90
6843;DHT22;3460;52.028;8.916;2022-12-18T10:38:22;-3.20;99.90
6843;DHT22;3460;52.028;8.916;2022-12-18T10:40:53;-3.10;99.90
6843;DHT22;3460;52.028;8.916;2022-12-18T10:43:23;-3.00;99.90
6843;DHT22;3460;52.028;8.916;2022-12-18T10:48:53;-3.00;99.90
6843;DHT22;3460;52.028;8.916;2022-12-18T10:51:23;-3.00;99.90
6843;DHT22;3460;52.028;8.916;2022-12-18T10:53:54;-3.00;99.90
6843;DHT22;3460;52.028;8.916;2022-12-18T10:56:24;-2.90;99.90
6843;DHT22;3460;52.028;8.916;2022-12-18T10:58:57;-2.80;99.90
6843;DHT22;3460;52.028;8.916;2022-12-18T11:01:24;-2.70;99.90
6843;DHT22;3460;52.028;8.916;2022-12-18T11:04:00;-2.70;99.90
6843;DHT22;3460;52.028;8.916;2022-12-18T11:06:27;-2.60;99.90
6843;DHT22;3460;52.028;8.916;2022-12-18T11:08:59;-2.50;99.90
6843;DHT22;3460;52.028;8.916;2022-12-18T11:11:28;-2.50;99.90
6843;DHT22;3460;52.028;8.916;2022-12-18T11:13:59;-2.40;99.90
6843;DHT22;3460;52.028;8.916;2022-12-18T11:16:28;-2.40;99.90
6843;DHT22;3460;52.028;8.916;2022-12-18T11:19:12;-2.50;99.90
6843;DHT22;3460;52.028;8.916;2022-12-18T11:21:40;-2.40;99.90
6843;DHT22;3460;52.028;8.916;2022-12-18T11:24:18;-2.40;99.90
6843;DHT22;3460;52.028;8.916;2022-12-18T11:26:48;-2.40;99.90
6843;DHT22;3460;52.028;8.916;2022-12-18T11:29:17;-2.40;99.90
6843;DHT22;3460;52.028;8.916;2022-12-18T11:31:44;-2.40;99.90
6843;DHT22;3460;52.028;8.916;2022-12-18T11:34:14;-2.40;99.90
6843;DHT22;3460;52.028;8.916;2022-12-18T11:36:45;-2.40;99.90
6843;DHT22;3460;52.028;8.916;2022-12-18T11:39:15;-2.40;99.90
6843;DHT22;3460;52.028;8.916;2022-12-18T11:41:50;-2.30;99.90
6843;DHT22;3460;52.028;8.916;2022-12-18T11:44:48;-2.30;99.90
6843;DHT22;3460;52.028;8.916;2022-12-18T11:47:25;-2.30;99.90
6843;DHT22;3460;52.028;8.916;2022-12-18T11:49:56;-2.20;99.90
6843;DHT22;3460;52.028;8.916;2022-12-18T11:52:27;-2.20;99.90
6843;DHT22;3460;52.028;8.916;2022-12-18T11:55:00;-2.10;99.90
6843;DHT22;3460;52.028;8.916;2022-12-18T11:57:35;-2.10;99.90
6843;DHT22;3460;52.028;8.916;2022-12-18T12:00:12;-2.10;99.90
6843;DHT22;3460;52.028;8.916;2022-12-18T12:03:07;-2.00;99.90
6843;DHT22;3460;52.028;8.916;2022-12-18T12:05:44;-1.90;99.90
6843;DHT22;3460;52.028;8.916;2022-12-18T12:08:17;-1.90;99.90
6843;DHT22;3460;52.028;8.916;2022-12-18T12:10:54;-1.80;99.90
6843;DHT22;3460;52.028;8.916;2022-12-18T12:13:32;-1.80;99.90
6843;DHT22;3460;52.028;8.916;2022-12-18T12:16:14;-1.70;99.90
6843;DHT22;3460;52.028;8.916;2022-12-18T12:18:53;-1.70;99.90
6843;DHT22;3460;52.028;8.916;2022-12-18T12:21:28;-1.70;99.90
6843;DHT22;3460;52.028;8.916;2022-12-18T12:24:00;-1.60;99.90
6843;DHT22;3460;52.028;8.916;2022-12-18T12:26:33;-1.60;99.90
6843;DHT22;3460;52.028;8.916;2022-12-18T12:29:13;-1.50;99.90
6843;DHT22;3460;52.028;8.916;2022-12-18T12:31:57;-1.50;99.90
6843;DHT22;3460;52.028;8.916;2022-12-18T12:34:31;-1.40;99.90
6843;DHT22;3460;52.028;8.916;2022-12-18T12:37:13;-1.40;99.90
6843;DHT22;3460;52.028;8.916;2022-12-18T12:39:44;-1.40;99.90
6843;DHT22;3460;52.028;8.916;2022-12-18T12:42:16;-1.30;99.90
6843;DHT22;3460;52.028;8.916;2022-12-18T12:45:06;-1.30;99.90
6843;DHT22;3460;52.028;8.916;2022-12-18T12:47:38;-1.20;99.90
6843;DHT22;3460;52.028;8.916;2022-12-18T12:50:13;-1.20;99.90
6843;DHT22;3460;52.028;8.916;2022-12-18T12:52:45;-1.10;99.90
6843;DHT22;3460;52.028;8.916;2022-12-18T12:55:17;-1.10;99.90
6843;DHT22;3460;52.028;8.916;2022-12-18T12:57:47;-1.10;99.90
6843;DHT22;3460;52.028;8.916;2022-12-18T13:00:19;-1.20;99.90
6843;DHT22;3460;52.028;8.916;2022-12-18T13:02:51;-1.10;99.90
6843;DHT22;3460;52.028;8.916;2022-12-18T13:05:23;-1.10;99.90
6843;DHT22;3460;52.028;8.916;2022-12-18T13:07:55;-1.10;99.90
6843;DHT22;3460;52.028;8.916;2022-12-18T13:10:26;-1.00;99.90
6843;DHT22;3460;52.028;8.916;2022-12-18T13:12:59;-1.00;99.90
6843;DHT22;3460;52.028;8.916;2022-12-18T13:15:31;-1.00;99.90
6843;DHT22;3460;52.028;8.916;2022-12-18T13:18:20;-0.90;99.90
6843;DHT22;3460;52.028;8.916;2022-12-18T13:20:49;-0.90;99.90
6843;DHT22;3460;52.028;8.916;2022-12-18T13:23:35;-0.90;99.90
6843;DHT22;3460;52.028;8.916;2022-12-18T13:26:32;-1.00;99.90
6843;DHT22;3460;52.028;8.916;2022-12-18T13:29:00;-0.90;99.90
6843;DHT22;3460;52.028;8.916;2022-12-18T13:34:34;-1.00;99.90
6843;DHT22;3460;52.028;8.916;2022-12-18T13:43:23;-1.00;99.90
6843;DHT22;3460;52.028;8.916;2022-12-18T13:46:06;-0.90;99.90
6843;DHT22;3460;52.028;8.916;2022-12-18T13:48:50;-0.90;99.90
6843;DHT22;3460;52.028;8.916;2022-12-18T13:51:19;-0.90;99.90
6843;DHT22;3460;52.028;8.916;2022-12-18T13:53:49;-1.00;99.90
6843;DHT22;3460;52.028;8.916;2022-12-18T13:56:17;-1.00;99.90
6843;DHT22;3460;52.028;8.916;2022-12-18T13:58:44;-1.00;99.90
6843;DHT22;3460;52.028;8.916;2022-12-18T14:01:21;-0.90;99.90
6843;DHT22;3460;52.028;8.916;2022-12-18T14:03:48;-0.90;99.90
6843;DHT22;3460;52.028;8.916;2022-12-18T14:06:18;-0.90;99.90
6843;DHT22;3460;52.028;8.916;2022-12-18T14:08:45;-0.90;99.90
6843;DHT22;3460;52.028;8.916;2022-12-18T14:11:20;-0.90;99.90
6843;DHT22;3460;52.028;8.916;2022-12-18T14:13:48;-0.90;99.90
6843;DHT22;3460;52.028;8.916;2022-12-18T14:16:16;-0.90;99.90
6843;DHT22;3460;52.028;8.916;2022-12-18T14:18:46;-0.80;99.90
6843;DHT22;3460;52.028;8.916;2022-12-18T14:21:23;-0.90;99.90
6843;DHT22;3460;52.028;8.916;2022-12-18T14:24:04;-0.80;99.90
6843;DHT22;3460;52.028;8.916;2022-12-18T14:26:32;-0.80;99.90
6843;DHT22;3460;52.028;8.916;2022-12-18T14:29:00;-0.80;99.90
6843;DHT22;3460;52.028;8.916;2022-12-18T14:31:29;-0.80;99.90
6843;DHT22;3460;52.028;8.916;2022-12-18T14:33:56;-0.80;99.90
6843;DHT22;3460;52.028;8.916;2022-12-18T14:36:26;-0.80;99.90
6843;DHT22;3460;52.028;8.916;2022-12-18T14:38:54;-0.80;99.90
6843;DHT22;3460;52.028;8.916;2022-12-18T14:41:22;-0.80;99.90
6843;DHT22;3460;52.028;8.916;2022-12-18T14:43:50;-0.80;99.90
6843;DHT22;3460;52.028;8.916;2022-12-18T14:46:30;-0.90;99.90
6843;DHT22;3460;52.028;8.916;2022-12-18T14:49:00;-0.80;99.90
6843;DHT22;3460;52.028;8.916;2022-12-18T14:51:31;-0.80;99.90
6843;DHT22;3460;52.028;8.916;2022-12-18T14:53:59;-0.80;99.90
6843;DHT22;3460;52.028;8.916;2022-12-18T14:56:29;-0.80;99.90
6843;DHT22;3460;52.028;8.916;2022-12-18T14:58:57;-0.90;99.90
6843;DHT22;3460;52.028;8.916;2022-12-18T15:01:27;-0.90;99.90
6843;DHT22;3460;52.028;8.916;2022-12-18T15:03:55;-0.90;99.90
6843;DHT22;3460;52.028;8.916;2022-12-18T15:06:30;-0.90;99.90
6843;DHT22;3460;52.028;8.916;2022-12-18T15:08:58;-0.90;99.90
6843;DHT22;3460;52.028;8.916;2022-12-18T15:11:28;-0.90;99.90
6843;DHT22;3460;52.028;8.916;2022-12-18T15:13:57;-0.90;99.90
6843;DHT22;3460;52.028;8.916;2022-12-18T15:16:23;-1.00;99.90
6843;DHT22;3460;52.028;8.916;2022-12-18T15:18:51;-1.00;99.90
6843;DHT22;3460;52.028;8.916;2022-12-18T15:21:19;-1.00;99.90
6843;DHT22;3460;52.028;8.916;2022-12-18T15:23:50;-1.00;99.90
6843;DHT22;3460;52.028;8.916;2022-12-18T15:26:18;-1.00;99.90
6843;DHT22;3460;52.028;8.916;2022-12-18T15:28:47;-1.00;99.90
6843;DHT22;3460;52.028;8.916;2022-12-18T15:31:23;-1.00;99.90
6843;DHT22;3460;52.028;8.916;2022-12-18T15:34:13;-1.00;99.90
6843;DHT22;3460;52.028;8.916;2022-12-18T15:36:44;-1.00;99.90
6843;DHT22;3460;52.028;8.916;2022-12-18T15:39:13;-1.00;99.90
6843;DHT22;3460;52.028;8.916;2022-12-18T15:41:40;-1.10;99.90
6843;DHT22;3460;52.028;8.916;2022-12-18T15:44:27;-1.10;99.90
6843;DHT22;3460;52.028;8.916;2022-12-18T15:46:52;-1.10;99.90
6843;DHT22;3460;52.028;8.916;2022-12-18T15:49:19;-1.10;99.90
6843;DHT22;3460;52.028;8.916;2022-12-18T15:51:49;-1.10;99.90
6843;DHT22;3460;52.028;8.916;2022-12-18T15:54:19;-1.10;99.90
6843;DHT22;3460;52.028;8.916;2022-12-18T15:57:09;-1.10;99.90
6843;DHT22;3460;52.028;8.916;2022-12-18T15:59:50;-1.20;99.90
6843;DHT22;3460;52.028;8.916;2022-12-18T16:02:18;-1.20;99.90
6843;DHT22;3460;52.028;8.916;2022-12-18T16:04:45;-1.20;99.90
6843;DHT22;3460;52.028;8.916;2022-12-18T16:07:12;-1.10;99.90
6843;DHT22;3460;52.028;8.916;2022-12-18T16:09:40;-1.10;99.90
6843;DHT22;3460;52.028;8.916;2022-12-18T16:12:14;-1.20;99.90
6843;DHT22;3460;52.028;8.916;2022-12-18T16:14:41;-1.20;99.90
6843;DHT22;3460;52.028;8.916;2022-12-18T16:17:10;-1.20;99.90
6843;DHT22;3460;52.028;8.916;2022-12-18T16:19:38;-1.20;99.90
6843;DHT22;3460;52.028;8.916;2022-12-18T16:22:04;-1.20;99.90
6843;DHT22;3460;52.028;8.916;2022-12-18T16:24:32;-1.20;99.90
6843;DHT22;3460;52.028;8.916;2022-12-18T16:27:02;-1.20;99.90
6843;DHT22;3460;52.028;8.916;2022-12-18T16:29:29;-1.20;99.90
6843;DHT22;3460;52.028;8.916;2022-12-18T16:31:57;-1.20;99.90
6843;DHT22;3460;52.028;8.916;2022-12-18T16:34:26;-1.20;99.90
6843;DHT22;3460;52.028;8.916;2022-12-18T16:36:55;-1.20;99.90